sensor_id;sensor_type;location;lat;lon;timestamp;P1;durP1;ratioP1;P2;durP2;ratioP2
3141;SDS011;1581;51.568;6.998;2022-07-24T00:02:10;5.20;;;4.27;;
3141;SDS011;1581;51.568;6.998;2022-07-24T00:04:37;7.20;;;3.50;;
3141;SDS011;1581;51.568;6.998;2022-07-24T00:07:07;4.82;;;3.72;;
3141;SDS011;1581;51.568;6.998;2022-07-24T00:09:34;5.35;;;4.30;;
3141;SDS011;1581;51.568;6.998;2022-07-24T00:12:02;6.18;;;4.05;;
3141;SDS011;1581;51.568;6.998;2022-07-24T00:14:31;7.93;;;3.92;;
3141;SDS011;1581;51.568;6.998;2022-07-24T00:16:58;3.58;;;3.25;;
3141;SDS011;1581;51.568;6.998;2022-07-24T00:19:26;5.13;;;4.20;;
3141;SDS011;1581;51.568;6.998;2022-07-24T00:21:54;7.68;;;3.88;;
3141;SDS011;1581;51.568;6.998;2022-07-24T00:24:23;8.90;;;4.07;;
3141;SDS011;1581;51.568;6.998;2022-07-24T00:26:51;6.55;;;4.00;;
3141;SDS011;1581;51.568;6.998;2022-07-24T00:29:19;4.50;;;4.10;;
3141;SDS011;1581;51.568;6.998;2022-07-24T00:31:47;6.93;;;4.67;;
3141;SDS011;1581;51.568;6.998;2022-07-24T00:34:15;6.57;;;4.47;;
3141;SDS011;1581;51.568;6.998;2022-07-24T00:36:43;6.22;;;4.30;;
3141;SDS011;1581;51.568;6.998;2022-07-24T00:39:10;5.17;;;4.67;;
3141;SDS011;1581;51.568;6.998;2022-07-24T00:41:39;5.17;;;4.67;;
3141;SDS011;1581;51.568;6.998;2022-07-24T00:44:08;6.40;;;3.88;;
3141;SDS011;1581;51.568;6.998;2022-07-24T00:46:38;5.18;;;4.38;;
3141;SDS011;1581;51.568;6.998;2022-07-24T00:49:09;5.82;;;4.15;;
3141;SDS011;1581;51.568;6.998;2022-07-24T00:51:40;7.15;;;4.38;;
3141;SDS011;1581;51.568;6.998;2022-07-24T00:54:11;5.50;;;4.27;;
3141;SDS011;1581;51.568;6.998;2022-07-24T00:56:42;6.80;;;5.10;;
3141;SDS011;1581;51.568;6.998;2022-07-24T00:59:13;5.20;;;4.07;;
3141;SDS011;1581;51.568;6.998;2022-07-24T01:01:42;4.60;;;4.20;;
3141;SDS011;1581;51.568;6.998;2022-07-24T01:04:09;10.00;;;5.05;;
3141;SDS011;1581;51.568;6.998;2022-07-24T01:06:39;7.40;;;4.50;;
3141;SDS011;1581;51.568;6.998;2022-07-24T01:09:07;7.30;;;5.13;;
3141;SDS011;1581;51.568;6.998;2022-07-24T01:11:36;9.88;;;4.18;;
3141;SDS011;1581;51.568;6.998;2022-07-24T01:14:05;7.20;;;3.80;;
3141;SDS011;1581;51.568;6.998;2022-07-24T01:16:34;18.73;;;4.03;;
3141;SDS011;1581;51.568;6.998;2022-07-24T01:19:02;4.10;;;3.77;;
3141;SDS011;1581;51.568;6.998;2022-07-24T01:21:31;5.22;;;4.40;;
3141;SDS011;1581;51.568;6.998;2022-07-24T01:23:59;6.43;;;4.17;;
3141;SDS011;1581;51.568;6.998;2022-07-24T01:26:27;5.10;;;4.13;;
3141;SDS011;1581;51.568;6.998;2022-07-24T01:28:55;5.47;;;4.07;;
3141;SDS011;1581;51.568;6.998;2022-07-24T01:31:23;6.03;;;4.67;;
3141;SDS011;1581;51.568;6.998;2022-07-24T01:33:51;5.93;;;4.20;;
3141;SDS011;1581;51.568;6.998;2022-07-24T01:36:19;4.40;;;4.00;;
3141;SDS011;1581;51.568;6.998;2022-07-24T01:38:48;4.10;;;3.80;;
3141;SDS011;1581;51.568;6.998;2022-07-24T01:41:16;6.03;;;4.97;;
3141;SDS011;1581;51.568;6.998;2022-07-24T01:43:44;8.17;;;4.13;;
3141;SDS011;1581;51.568;6.998;2022-07-24T01:46:12;5.00;;;4.20;;
3141;SDS011;1581;51.568;6.998;2022-07-24T01:48:42;7.20;;;4.63;;
3141;SDS011;1581;51.568;6.998;2022-07-24T01:51:10;9.27;;;5.27;;
3141;SDS011;1581;51.568;6.998;2022-07-24T01:53:38;6.60;;;4.10;;
3141;SDS011;1581;51.568;6.998;2022-07-24T01:56:07;8.80;;;4.57;;
3141;SDS011;1581;51.568;6.998;2022-07-24T01:58:35;9.97;;;5.20;;
3141;SDS011;1581;51.568;6.998;2022-07-24T02:01:04;6.47;;;4.50;;
3141;SDS011;1581;51.568;6.998;2022-07-24T02:03:32;9.37;;;5.40;;
3141;SDS011;1581;51.568;6.998;2022-07-24T02:06:00;11.33;;;4.67;;
3141;SDS011;1581;51.568;6.998;2022-07-24T02:08:28;7.50;;;4.57;;
3141;SDS011;1581;51.568;6.998;2022-07-24T02:10:57;5.67;;;4.50;;
3141;SDS011;1581;51.568;6.998;2022-07-24T02:13:27;7.60;;;4.50;;
3141;SDS011;1581;51.568;6.998;2022-07-24T02:15:55;4.00;;;3.57;;
3141;SDS011;1581;51.568;6.998;2022-07-24T02:18:23;8.50;;;4.43;;
3141;SDS011;1581;51.568;6.998;2022-07-24T02:20:52;4.40;;;3.77;;
3141;SDS011;1581;51.568;6.998;2022-07-24T02:23:20;7.80;;;4.30;;
3141;SDS011;1581;51.568;6.998;2022-07-24T02:25:48;9.30;;;4.43;;
3141;SDS011;1581;51.568;6.998;2022-07-24T02:28:17;5.03;;;4.53;;
3141;SDS011;1581;51.568;6.998;2022-07-24T02:30:47;10.83;;;4.30;;
3141;SDS011;1581;51.568;6.998;2022-07-24T02:33:16;9.33;;;5.17;;
3141;SDS011;1581;51.568;6.998;2022-07-24T02:35:45;11.67;;;4.73;;
3141;SDS011;1581;51.568;6.998;2022-07-24T02:38:14;5.87;;;4.13;;
3141;SDS011;1581;51.568;6.998;2022-07-24T02:40:42;9.63;;;4.30;;
3141;SDS011;1581;51.568;6.998;2022-07-24T02:43:10;4.63;;;4.20;;
3141;SDS011;1581;51.568;6.998;2022-07-24T02:45:38;8.97;;;4.90;;
3141;SDS011;1581;51.568;6.998;2022-07-24T02:48:07;7.97;;;5.60;;
3141;SDS011;1581;51.568;6.998;2022-07-24T02:50:36;4.63;;;4.13;;
3141;SDS011;1581;51.568;6.998;2022-07-24T02:53:05;5.60;;;4.77;;
3141;SDS011;1581;51.568;6.998;2022-07-24T02:55:33;6.67;;;4.33;;
3141;SDS011;1581;51.568;6.998;2022-07-24T02:58:01;8.47;;;4.33;;
3141;SDS011;1581;51.568;6.998;2022-07-24T03:00:29;4.80;;;4.30;;
3141;SDS011;1581;51.568;6.998;2022-07-24T03:02:58;5.93;;;4.67;;
3141;SDS011;1581;51.568;6.998;2022-07-24T03:05:27;5.10;;;3.90;;
3141;SDS011;1581;51.568;6.998;2022-07-24T03:07:55;9.70;;;4.73;;
3141;SDS011;1581;51.568;6.998;2022-07-24T03:10:24;9.30;;;4.90;;
3141;SDS011;1581;51.568;6.998;2022-07-24T03:12:52;13.30;;;4.93;;
3141;SDS011;1581;51.568;6.998;2022-07-24T03:15:20;10.20;;;4.13;;
3141;SDS011;1581;51.568;6.998;2022-07-24T03:17:48;6.27;;;4.20;;
3141;SDS011;1581;51.568;6.998;2022-07-24T03:20:17;8.70;;;4.50;;
3141;SDS011;1581;51.568;6.998;2022-07-24T03:22:47;7.37;;;4.97;;
3141;SDS011;1581;51.568;6.998;2022-07-24T03:25:16;8.93;;;4.50;;
3141;SDS011;1581;51.568;6.998;2022-07-24T03:27:45;4.23;;;3.83;;
3141;SDS011;1581;51.568;6.998;2022-07-24T03:30:13;8.20;;;4.47;;
3141;SDS011;1581;51.568;6.998;2022-07-24T03:32:43;7.80;;;4.57;;
3141;SDS011;1581;51.568;6.998;2022-07-24T03:35:11;6.27;;;4.83;;
3141;SDS011;1581;51.568;6.998;2022-07-24T03:37:42;4.70;;;4.23;;
3141;SDS011;1581;51.568;6.998;2022-07-24T03:40:15;8.97;;;5.20;;
3141;SDS011;1581;51.568;6.998;2022-07-24T03:42:42;16.77;;;5.27;;
3141;SDS011;1581;51.568;6.998;2022-07-24T03:45:11;5.10;;;4.40;;
3141;SDS011;1581;51.568;6.998;2022-07-24T03:47:38;10.20;;;5.43;;
3141;SDS011;1581;51.568;6.998;2022-07-24T03:50:06;7.80;;;5.13;;
3141;SDS011;1581;51.568;6.998;2022-07-24T03:52:35;5.23;;;4.43;;
3141;SDS011;1581;51.568;6.998;2022-07-24T03:55:03;5.43;;;4.63;;
3141;SDS011;1581;51.568;6.998;2022-07-24T03:57:34;7.73;;;5.20;;
3141;SDS011;1581;51.568;6.998;2022-07-24T04:00:03;8.13;;;4.80;;
3141;SDS011;1581;51.568;6.998;2022-07-24T04:02:34;5.47;;;4.67;;
3141;SDS011;1581;51.568;6.998;2022-07-24T04:05:02;7.13;;;4.50;;
3141;SDS011;1581;51.568;6.998;2022-07-24T04:07:33;8.10;;;5.00;;
3141;SDS011;1581;51.568;6.998;2022-07-24T04:10:02;10.33;;;4.93;;
3141;SDS011;1581;51.568;6.998;2022-07-24T04:12:34;5.50;;;4.40;;
3141;SDS011;1581;51.568;6.998;2022-07-24T04:15:02;5.80;;;4.40;;
3141;SDS011;1581;51.568;6.998;2022-07-24T04:17:31;5.70;;;4.33;;
3141;SDS011;1581;51.568;6.998;2022-07-24T04:19:58;8.23;;;4.60;;
3141;SDS011;1581;51.568;6.998;2022-07-24T04:22:26;6.30;;;4.57;;
3141;SDS011;1581;51.568;6.998;2022-07-24T04:24:54;9.03;;;4.63;;
3141;SDS011;1581;51.568;6.998;2022-07-24T04:27:23;9.20;;;5.10;;
3141;SDS011;1581;51.568;6.998;2022-07-24T04:29:52;5.47;;;4.73;;
3141;SDS011;1581;51.568;6.998;2022-07-24T04:32:23;10.70;;;4.40;;
3141;SDS011;1581;51.568;6.998;2022-07-24T04:34:51;8.63;;;4.27;;
3141;SDS011;1581;51.568;6.998;2022-07-24T04:37:19;6.50;;;4.53;;
3141;SDS011;1581;51.568;6.998;2022-07-24T04:39:46;7.50;;;4.73;;
3141;SDS011;1581;51.568;6.998;2022-07-24T04:42:14;7.43;;;4.73;;
3141;SDS011;1581;51.568;6.998;2022-07-24T04:44:42;7.90;;;5.80;;
3141;SDS011;1581;51.568;6.998;2022-07-24T04:47:11;6.87;;;4.53;;
3141;SDS011;1581;51.568;6.998;2022-07-24T04:49:39;6.33;;;4.47;;
3141;SDS011;1581;51.568;6.998;2022-07-24T04:52:07;9.77;;;5.70;;
3141;SDS011;1581;51.568;6.998;2022-07-24T04:54:35;7.00;;;5.17;;
3141;SDS011;1581;51.568;6.998;2022-07-24T04:57:03;4.67;;;4.10;;
3141;SDS011;1581;51.568;6.998;2022-07-24T04:59:31;12.80;;;5.00;;
3141;SDS011;1581;51.568;6.998;2022-07-24T05:02:02;7.63;;;4.60;;
3141;SDS011;1581;51.568;6.998;2022-07-24T05:04:32;9.00;;;5.13;;
3141;SDS011;1581;51.568;6.998;2022-07-24T05:07:02;5.23;;;4.73;;
3141;SDS011;1581;51.568;6.998;2022-07-24T05:09:32;8.53;;;4.90;;
3141;SDS011;1581;51.568;6.998;2022-07-24T05:12:01;4.90;;;4.23;;
3141;SDS011;1581;51.568;6.998;2022-07-24T05:14:29;4.67;;;4.17;;
3141;SDS011;1581;51.568;6.998;2022-07-24T05:16:57;9.07;;;4.75;;
3141;SDS011;1581;51.568;6.998;2022-07-24T05:19:26;7.10;;;4.57;;
3141;SDS011;1581;51.568;6.998;2022-07-24T05:21:56;5.20;;;4.73;;
3141;SDS011;1581;51.568;6.998;2022-07-24T05:24:24;7.90;;;5.10;;
3141;SDS011;1581;51.568;6.998;2022-07-24T05:26:52;8.30;;;4.57;;
3141;SDS011;1581;51.568;6.998;2022-07-24T05:29:21;8.40;;;4.65;;
3141;SDS011;1581;51.568;6.998;2022-07-24T05:31:50;7.73;;;4.40;;
3141;SDS011;1581;51.568;6.998;2022-07-24T05:34:19;5.57;;;4.22;;
3141;SDS011;1581;51.568;6.998;2022-07-24T05:36:48;4.30;;;3.90;;
3141;SDS011;1581;51.568;6.998;2022-07-24T05:39:21;5.13;;;4.63;;
3141;SDS011;1581;51.568;6.998;2022-07-24T05:41:48;4.63;;;4.15;;
3141;SDS011;1581;51.568;6.998;2022-07-24T05:44:16;4.90;;;4.07;;
3141;SDS011;1581;51.568;6.998;2022-07-24T05:46:45;6.88;;;4.20;;
3141;SDS011;1581;51.568;6.998;2022-07-24T05:49:48;4.22;;;3.92;;
3141;SDS011;1581;51.568;6.998;2022-07-24T05:52:25;3.70;;;3.45;;
3141;SDS011;1581;51.568;6.998;2022-07-24T05:55:16;12.00;;;4.57;;
3141;SDS011;1581;51.568;6.998;2022-07-24T05:58:16;5.10;;;4.60;;
3141;SDS011;1581;51.568;6.998;2022-07-24T06:01:03;8.25;;;5.10;;
3141;SDS011;1581;51.568;6.998;2022-07-24T06:03:31;6.95;;;4.45;;
3141;SDS011;1581;51.568;6.998;2022-07-24T06:06:08;5.43;;;4.88;;
3141;SDS011;1581;51.568;6.998;2022-07-24T06:08:36;6.38;;;5.15;;
3141;SDS011;1581;51.568;6.998;2022-07-24T06:11:05;10.65;;;4.70;;
3141;SDS011;1581;51.568;6.998;2022-07-24T06:13:34;6.30;;;4.88;;
3141;SDS011;1581;51.568;6.998;2022-07-24T06:16:04;5.43;;;4.15;;
3141;SDS011;1581;51.568;6.998;2022-07-24T06:18:32;9.10;;;4.60;;
3141;SDS011;1581;51.568;6.998;2022-07-24T06:21:00;7.65;;;4.47;;
3141;SDS011;1581;51.568;6.998;2022-07-24T06:23:28;8.15;;;4.07;;
3141;SDS011;1581;51.568;6.998;2022-07-24T06:25:57;5.15;;;4.45;;
3141;SDS011;1581;51.568;6.998;2022-07-24T06:28:34;4.45;;;4.00;;
3141;SDS011;1581;51.568;6.998;2022-07-24T06:34:32;5.28;;;4.53;;
3141;SDS011;1581;51.568;6.998;2022-07-24T06:37:01;10.48;;;4.03;;
3141;SDS011;1581;51.568;6.998;2022-07-24T06:39:29;4.47;;;4.07;;
3141;SDS011;1581;51.568;6.998;2022-07-24T06:41:57;4.57;;;4.18;;
3141;SDS011;1581;51.568;6.998;2022-07-24T06:44:28;9.13;;;3.97;;
3141;SDS011;1581;51.568;6.998;2022-07-24T06:46:59;4.35;;;4.05;;
3141;SDS011;1581;51.568;6.998;2022-07-24T06:49:26;5.13;;;4.45;;
3141;SDS011;1581;51.568;6.998;2022-07-24T06:51:54;9.77;;;4.43;;
3141;SDS011;1581;51.568;6.998;2022-07-24T06:54:23;6.13;;;4.47;;
3141;SDS011;1581;51.568;6.998;2022-07-24T06:56:50;10.32;;;4.78;;
3141;SDS011;1581;51.568;6.998;2022-07-24T06:59:18;5.72;;;4.35;;
3141;SDS011;1581;51.568;6.998;2022-07-24T07:01:51;8.43;;;4.10;;
3141;SDS011;1581;51.568;6.998;2022-07-24T07:04:19;4.50;;;4.10;;
3141;SDS011;1581;51.568;6.998;2022-07-24T07:06:48;6.38;;;4.47;;
3141;SDS011;1581;51.568;6.998;2022-07-24T07:09:16;6.03;;;3.97;;
3141;SDS011;1581;51.568;6.998;2022-07-24T07:11:44;9.82;;;4.20;;
3141;SDS011;1581;51.568;6.998;2022-07-24T07:14:12;7.45;;;4.40;;
3141;SDS011;1581;51.568;6.998;2022-07-24T07:16:39;6.50;;;4.05;;
3141;SDS011;1581;51.568;6.998;2022-07-24T07:19:09;3.90;;;3.60;;
3141;SDS011;1581;51.568;6.998;2022-07-24T07:21:37;5.05;;;4.35;;
3141;SDS011;1581;51.568;6.998;2022-07-24T07:24:05;5.03;;;3.97;;
3141;SDS011;1581;51.568;6.998;2022-07-24T07:26:34;6.15;;;4.78;;
3141;SDS011;1581;51.568;6.998;2022-07-24T07:29:01;9.07;;;5.35;;
3141;SDS011;1581;51.568;6.998;2022-07-24T07:31:29;4.93;;;4.38;;
3141;SDS011;1581;51.568;6.998;2022-07-24T07:33:57;5.93;;;4.45;;
3141;SDS011;1581;51.568;6.998;2022-07-24T07:36:26;5.30;;;3.90;;
3141;SDS011;1581;51.568;6.998;2022-07-24T07:38:54;6.63;;;4.07;;
3141;SDS011;1581;51.568;6.998;2022-07-24T07:41:22;11.52;;;5.00;;
3141;SDS011;1581;51.568;6.998;2022-07-24T07:43:51;5.85;;;4.72;;
3141;SDS011;1581;51.568;6.998;2022-07-24T07:46:19;12.15;;;4.80;;
3141;SDS011;1581;51.568;6.998;2022-07-24T07:48:56;19.17;;;5.18;;
3141;SDS011;1581;51.568;6.998;2022-07-24T07:51:24;13.25;;;4.85;;
3141;SDS011;1581;51.568;6.998;2022-07-24T07:54:19;4.53;;;4.03;;
3141;SDS011;1581;51.568;6.998;2022-07-24T07:56:47;5.80;;;4.35;;
3141;SDS011;1581;51.568;6.998;2022-07-24T07:59:14;5.38;;;4.68;;
3141;SDS011;1581;51.568;6.998;2022-07-24T08:01:42;7.15;;;5.22;;
3141;SDS011;1581;51.568;6.998;2022-07-24T08:04:11;7.28;;;4.30;;
3141;SDS011;1581;51.568;6.998;2022-07-24T08:06:39;5.53;;;5.03;;
3141;SDS011;1581;51.568;6.998;2022-07-24T08:09:07;9.43;;;5.03;;
3141;SDS011;1581;51.568;6.998;2022-07-24T08:11:36;8.30;;;5.57;;
3141;SDS011;1581;51.568;6.998;2022-07-24T08:14:03;6.68;;;4.90;;
3141;SDS011;1581;51.568;6.998;2022-07-24T08:16:31;7.82;;;4.72;;
3141;SDS011;1581;51.568;6.998;2022-07-24T08:18:59;6.22;;;5.22;;
3141;SDS011;1581;51.568;6.998;2022-07-24T08:21:26;9.10;;;5.63;;
3141;SDS011;1581;51.568;6.998;2022-07-24T08:23:56;8.32;;;6.25;;
3141;SDS011;1581;51.568;6.998;2022-07-24T08:26:24;11.25;;;6.30;;
3141;SDS011;1581;51.568;6.998;2022-07-24T08:28:57;7.63;;;5.82;;
3141;SDS011;1581;51.568;6.998;2022-07-24T08:31:26;5.90;;;5.20;;
3141;SDS011;1581;51.568;6.998;2022-07-24T08:33:54;10.57;;;5.78;;
3141;SDS011;1581;51.568;6.998;2022-07-24T08:36:22;7.63;;;5.18;;
3141;SDS011;1581;51.568;6.998;2022-07-24T08:38:49;8.77;;;5.80;;
3141;SDS011;1581;51.568;6.998;2022-07-24T08:41:17;10.77;;;5.90;;
3141;SDS011;1581;51.568;6.998;2022-07-24T08:43:45;8.70;;;5.82;;
3141;SDS011;1581;51.568;6.998;2022-07-24T08:46:15;6.65;;;5.22;;
3141;SDS011;1581;51.568;6.998;2022-07-24T08:48:43;6.43;;;5.82;;
3141;SDS011;1581;51.568;6.998;2022-07-24T08:51:12;7.63;;;5.55;;
3141;SDS011;1581;51.568;6.998;2022-07-24T08:53:40;8.73;;;6.30;;
3141;SDS011;1581;51.568;6.998;2022-07-24T08:56:10;7.22;;;6.47;;
3141;SDS011;1581;51.568;6.998;2022-07-24T08:58:38;11.75;;;6.57;;
3141;SDS011;1581;51.568;6.998;2022-07-24T09:01:07;8.23;;;6.60;;
3141;SDS011;1581;51.568;6.998;2022-07-24T09:03:40;11.27;;;6.47;;
3141;SDS011;1581;51.568;6.998;2022-07-24T09:06:09;7.97;;;6.10;;
3141;SDS011;1581;51.568;6.998;2022-07-24T09:08:38;11.75;;;7.45;;
3141;SDS011;1581;51.568;6.998;2022-07-24T09:11:07;11.07;;;7.05;;
3141;SDS011;1581;51.568;6.998;2022-07-24T09:13:36;12.55;;;6.85;;
3141;SDS011;1581;51.568;6.998;2022-07-24T09:16:21;11.30;;;7.97;;
3141;SDS011;1581;51.568;6.998;2022-07-24T09:19:03;12.02;;;6.65;;
3141;SDS011;1581;51.568;6.998;2022-07-24T09:21:33;9.05;;;6.97;;
3141;SDS011;1581;51.568;6.998;2022-07-24T09:24:07;11.88;;;7.45;;
3141;SDS011;1581;51.568;6.998;2022-07-24T09:26:45;7.15;;;5.95;;
3141;SDS011;1581;51.568;6.998;2022-07-24T09:29:15;8.48;;;5.53;;
3141;SDS011;1581;51.568;6.998;2022-07-24T09:31:54;10.35;;;6.97;;
3141;SDS011;1581;51.568;6.998;2022-07-24T09:34:26;10.95;;;5.90;;
3141;SDS011;1581;51.568;6.998;2022-07-24T09:36:59;15.38;;;6.65;;
3141;SDS011;1581;51.568;6.998;2022-07-24T09:39:30;7.35;;;6.38;;
3141;SDS011;1581;51.568;6.998;2022-07-24T09:42:00;10.30;;;7.03;;
3141;SDS011;1581;51.568;6.998;2022-07-24T09:44:30;8.82;;;6.38;;
3141;SDS011;1581;51.568;6.998;2022-07-24T09:46:59;6.55;;;5.75;;
3141;SDS011;1581;51.568;6.998;2022-07-24T09:49:31;12.27;;;6.60;;
3141;SDS011;1581;51.568;6.998;2022-07-24T09:52:07;13.73;;;6.82;;
3141;SDS011;1581;51.568;6.998;2022-07-24T09:54:38;10.68;;;7.22;;
3141;SDS011;1581;51.568;6.998;2022-07-24T09:57:14;11.55;;;6.30;;
3141;SDS011;1581;51.568;6.998;2022-07-24T09:59:45;9.60;;;6.82;;
3141;SDS011;1581;51.568;6.998;2022-07-24T10:02:16;7.18;;;5.93;;
3141;SDS011;1581;51.568;6.998;2022-07-24T10:04:48;16.17;;;6.30;;
3141;SDS011;1581;51.568;6.998;2022-07-24T10:07:21;11.95;;;6.28;;
3141;SDS011;1581;51.568;6.998;2022-07-24T10:09:51;7.78;;;5.63;;
3141;SDS011;1581;51.568;6.998;2022-07-24T10:12:21;6.22;;;5.63;;
3141;SDS011;1581;51.568;6.998;2022-07-24T10:14:51;6.72;;;5.68;;
3141;SDS011;1581;51.568;6.998;2022-07-24T10:17:21;12.35;;;5.88;;
3141;SDS011;1581;51.568;6.998;2022-07-24T10:20:03;6.35;;;4.88;;
3141;SDS011;1581;51.568;6.998;2022-07-24T10:22:37;8.98;;;6.13;;
3141;SDS011;1581;51.568;6.998;2022-07-24T10:25:22;7.30;;;5.50;;
3141;SDS011;1581;51.568;6.998;2022-07-24T10:27:54;6.40;;;5.28;;
3141;SDS011;1581;51.568;6.998;2022-07-24T10:30:28;5.95;;;5.35;;
3141;SDS011;1581;51.568;6.998;2022-07-24T10:32:57;8.57;;;6.95;;
3141;SDS011;1581;51.568;6.998;2022-07-24T10:35:27;7.55;;;5.07;;
3141;SDS011;1581;51.568;6.998;2022-07-24T10:38:02;7.40;;;6.38;;
3141;SDS011;1581;51.568;6.998;2022-07-24T10:40:42;8.65;;;6.88;;
3141;SDS011;1581;51.568;6.998;2022-07-24T10:43:14;9.93;;;6.30;;
3141;SDS011;1581;51.568;6.998;2022-07-24T10:45:44;7.40;;;5.68;;
3141;SDS011;1581;51.568;6.998;2022-07-24T10:48:34;12.82;;;5.70;;
3141;SDS011;1581;51.568;6.998;2022-07-24T10:51:08;19.33;;;9.93;;
3141;SDS011;1581;51.568;6.998;2022-07-24T10:56:37;8.48;;;5.53;;
3141;SDS011;1581;51.568;6.998;2022-07-24T10:59:08;13.57;;;5.28;;
3141;SDS011;1581;51.568;6.998;2022-07-24T11:01:39;14.75;;;5.93;;
3141;SDS011;1581;51.568;6.998;2022-07-24T11:04:28;5.25;;;4.65;;
3141;SDS011;1581;51.568;6.998;2022-07-24T11:06:59;9.43;;;5.63;;
3141;SDS011;1581;51.568;6.998;2022-07-24T11:12:28;8.93;;;4.93;;
3141;SDS011;1581;51.568;6.998;2022-07-24T11:14:58;14.55;;;5.18;;
3141;SDS011;1581;51.568;6.998;2022-07-24T11:17:41;5.35;;;4.43;;
3141;SDS011;1581;51.568;6.998;2022-07-24T11:20:10;10.05;;;4.55;;
3141;SDS011;1581;51.568;6.998;2022-07-24T11:22:42;6.43;;;5.03;;
3141;SDS011;1581;51.568;6.998;2022-07-24T11:25:15;7.93;;;4.97;;
3141;SDS011;1581;51.568;6.998;2022-07-24T11:27:49;6.03;;;4.60;;
3141;SDS011;1581;51.568;6.998;2022-07-24T11:30:23;6.32;;;4.38;;
3141;SDS011;1581;51.568;6.998;2022-07-24T11:32:53;6.80;;;4.43;;
3141;SDS011;1581;51.568;6.998;2022-07-24T11:35:28;6.93;;;4.65;;
3141;SDS011;1581;51.568;6.998;2022-07-24T11:38:01;4.93;;;4.47;;
3141;SDS011;1581;51.568;6.998;2022-07-24T11:40:32;6.50;;;4.68;;
3141;SDS011;1581;51.568;6.998;2022-07-24T11:43:01;9.02;;;5.68;;
3141;SDS011;1581;51.568;6.998;2022-07-24T11:45:30;8.80;;;4.72;;
3141;SDS011;1581;51.568;6.998;2022-07-24T11:47:59;8.85;;;5.05;;
3141;SDS011;1581;51.568;6.998;2022-07-24T11:50:27;4.28;;;3.88;;
3141;SDS011;1581;51.568;6.998;2022-07-24T11:52:54;5.88;;;4.90;;
3141;SDS011;1581;51.568;6.998;2022-07-24T11:55:23;9.00;;;4.82;;
3141;SDS011;1581;51.568;6.998;2022-07-24T11:57:52;9.20;;;4.57;;
3141;SDS011;1581;51.568;6.998;2022-07-24T12:34:04;3.60;;;3.40;;
3141;SDS011;1581;51.568;6.998;2022-07-24T12:36:32;3.83;;;3.42;;
3141;SDS011;1581;51.568;6.998;2022-07-24T12:39:02;3.47;;;3.17;;
3141;SDS011;1581;51.568;6.998;2022-07-24T12:41:30;9.60;;;3.53;;
3141;SDS011;1581;51.568;6.998;2022-07-24T12:44:13;7.25;;;3.60;;
3141;SDS011;1581;51.568;6.998;2022-07-24T12:46:41;7.50;;;4.00;;
3141;SDS011;1581;51.568;6.998;2022-07-24T12:49:14;5.95;;;3.55;;
3141;SDS011;1581;51.568;6.998;2022-07-24T12:51:47;4.47;;;3.80;;
3141;SDS011;1581;51.568;6.998;2022-07-24T12:54:19;5.88;;;3.53;;
3141;SDS011;1581;51.568;6.998;2022-07-24T12:56:49;3.53;;;3.22;;
3141;SDS011;1581;51.568;6.998;2022-07-24T12:59:26;6.80;;;3.83;;
3141;SDS011;1581;51.568;6.998;2022-07-24T13:01:56;4.60;;;4.07;;
3141;SDS011;1581;51.568;6.998;2022-07-24T13:04:27;12.40;;;4.20;;
3141;SDS011;1581;51.568;6.998;2022-07-24T13:06:56;6.07;;;3.50;;
3141;SDS011;1581;51.568;6.998;2022-07-24T13:09:28;3.33;;;3.00;;
3141;SDS011;1581;51.568;6.998;2022-07-24T13:11:57;4.03;;;3.72;;
3141;SDS011;1581;51.568;6.998;2022-07-24T13:14:24;10.40;;;4.28;;
3141;SDS011;1581;51.568;6.998;2022-07-24T13:16:54;11.05;;;3.67;;
3141;SDS011;1581;51.568;6.998;2022-07-24T13:19:28;8.07;;;3.85;;
3141;SDS011;1581;51.568;6.998;2022-07-24T13:21:56;5.40;;;3.70;;
3141;SDS011;1581;51.568;6.998;2022-07-24T13:24:25;8.88;;;4.15;;
3141;SDS011;1581;51.568;6.998;2022-07-24T13:26:52;4.00;;;3.70;;
3141;SDS011;1581;51.568;6.998;2022-07-24T13:29:20;3.85;;;3.55;;
3141;SDS011;1581;51.568;6.998;2022-07-24T13:31:50;4.00;;;3.60;;
3141;SDS011;1581;51.568;6.998;2022-07-24T13:34:18;3.72;;;3.42;;
3141;SDS011;1581;51.568;6.998;2022-07-24T13:36:48;7.35;;;3.20;;
3141;SDS011;1581;51.568;6.998;2022-07-24T13:39:16;3.50;;;3.25;;
3141;SDS011;1581;51.568;6.998;2022-07-24T13:41:44;3.22;;;2.92;;
3141;SDS011;1581;51.568;6.998;2022-07-24T13:44:11;6.57;;;3.03;;
3141;SDS011;1581;51.568;6.998;2022-07-24T13:46:40;2.50;;;2.30;;
3141;SDS011;1581;51.568;6.998;2022-07-24T13:49:08;4.75;;;3.53;;
3141;SDS011;1581;51.568;6.998;2022-07-24T13:51:39;6.10;;;3.53;;
3141;SDS011;1581;51.568;6.998;2022-07-24T13:54:08;3.25;;;2.67;;
3141;SDS011;1581;51.568;6.998;2022-07-24T13:56:36;3.80;;;2.53;;
3141;SDS011;1581;51.568;6.998;2022-07-24T13:59:04;3.08;;;2.88;;
3141;SDS011;1581;51.568;6.998;2022-07-24T14:01:32;4.40;;;3.35;;
3141;SDS011;1581;51.568;6.998;2022-07-24T14:04:00;5.15;;;3.08;;
3141;SDS011;1581;51.568;6.998;2022-07-24T14:06:29;3.85;;;3.30;;
3141;SDS011;1581;51.568;6.998;2022-07-24T14:08:57;5.22;;;3.30;;
3141;SDS011;1581;51.568;6.998;2022-07-24T14:11:26;7.07;;;3.45;;
3141;SDS011;1581;51.568;6.998;2022-07-24T14:13:53;5.72;;;3.05;;
3141;SDS011;1581;51.568;6.998;2022-07-24T14:16:22;3.10;;;2.90;;
3141;SDS011;1581;51.568;6.998;2022-07-24T14:18:50;6.78;;;3.33;;
3141;SDS011;1581;51.568;6.998;2022-07-24T14:21:18;4.45;;;3.47;;
3141;SDS011;1581;51.568;6.998;2022-07-24T14:23:45;3.00;;;2.80;;
3141;SDS011;1581;51.568;6.998;2022-07-24T14:26:13;3.08;;;2.88;;
3141;SDS011;1581;51.568;6.998;2022-07-24T14:28:43;7.28;;;3.33;;
3141;SDS011;1581;51.568;6.998;2022-07-24T14:31:10;3.53;;;3.22;;
3141;SDS011;1581;51.568;6.998;2022-07-24T14:33:38;6.40;;;3.63;;
3141;SDS011;1581;51.568;6.998;2022-07-24T14:36:06;6.63;;;4.30;;
3141;SDS011;1581;51.568;6.998;2022-07-24T14:38:35;3.85;;;3.45;;
3141;SDS011;1581;51.568;6.998;2022-07-24T14:41:04;5.97;;;3.13;;
3141;SDS011;1581;51.568;6.998;2022-07-24T14:43:32;3.38;;;2.58;;
3141;SDS011;1581;51.568;6.998;2022-07-24T14:46:01;7.90;;;3.13;;
3141;SDS011;1581;51.568;6.998;2022-07-24T14:48:29;3.20;;;3.00;;
3141;SDS011;1581;51.568;6.998;2022-07-24T14:50:57;6.55;;;3.08;;
3141;SDS011;1581;51.568;6.998;2022-07-24T14:53:27;3.65;;;2.47;;
3141;SDS011;1581;51.568;6.998;2022-07-24T14:55:54;2.85;;;2.65;;
3141;SDS011;1581;51.568;6.998;2022-07-24T14:58:22;2.85;;;2.60;;
3141;SDS011;1581;51.568;6.998;2022-07-24T15:00:49;4.05;;;2.92;;
3141;SDS011;1581;51.568;6.998;2022-07-24T15:03:18;2.95;;;2.75;;
3141;SDS011;1581;51.568;6.998;2022-07-24T15:05:48;3.88;;;3.28;;
3141;SDS011;1581;51.568;6.998;2022-07-24T15:08:16;4.60;;;3.03;;
3141;SDS011;1581;51.568;6.998;2022-07-24T15:10:45;4.28;;;3.30;;
3141;SDS011;1581;51.568;6.998;2022-07-24T15:13:13;8.90;;;3.33;;
3141;SDS011;1581;51.568;6.998;2022-07-24T15:15:41;4.00;;;2.80;;
3141;SDS011;1581;51.568;6.998;2022-07-24T15:18:09;2.80;;;2.60;;
3141;SDS011;1581;51.568;6.998;2022-07-24T15:20:39;2.67;;;2.47;;
3141;SDS011;1581;51.568;6.998;2022-07-24T15:23:06;6.68;;;3.17;;
3141;SDS011;1581;51.568;6.998;2022-07-24T15:25:34;4.93;;;3.15;;
3141;SDS011;1581;51.568;6.998;2022-07-24T15:28:01;3.38;;;2.92;;
3141;SDS011;1581;51.568;6.998;2022-07-24T15:30:31;5.43;;;2.42;;
3141;SDS011;1581;51.568;6.998;2022-07-24T15:32:59;3.40;;;2.92;;
3141;SDS011;1581;51.568;6.998;2022-07-24T15:35:28;4.75;;;2.72;;
3141;SDS011;1581;51.568;6.998;2022-07-24T15:37:57;2.97;;;2.70;;
3141;SDS011;1581;51.568;6.998;2022-07-24T15:40:25;3.58;;;2.85;;
3141;SDS011;1581;51.568;6.998;2022-07-24T15:42:55;3.30;;;3.00;;
3141;SDS011;1581;51.568;6.998;2022-07-24T15:45:23;4.00;;;2.78;;
3141;SDS011;1581;51.568;6.998;2022-07-24T15:47:51;2.97;;;2.78;;
3141;SDS011;1581;51.568;6.998;2022-07-24T15:50:20;3.13;;;2.92;;
3141;SDS011;1581;51.568;6.998;2022-07-24T15:52:47;2.45;;;2.25;;
3141;SDS011;1581;51.568;6.998;2022-07-24T15:55:18;2.97;;;2.53;;
3141;SDS011;1581;51.568;6.998;2022-07-24T15:57:46;2.83;;;2.40;;
3141;SDS011;1581;51.568;6.998;2022-07-24T16:00:16;5.07;;;3.28;;
3141;SDS011;1581;51.568;6.998;2022-07-24T16:02:44;5.28;;;3.00;;
3141;SDS011;1581;51.568;6.998;2022-07-24T16:05:13;9.55;;;2.78;;
3141;SDS011;1581;51.568;6.998;2022-07-24T16:07:42;2.50;;;2.30;;
3141;SDS011;1581;51.568;6.998;2022-07-24T16:10:09;3.67;;;2.75;;
3141;SDS011;1581;51.568;6.998;2022-07-24T16:12:40;2.60;;;2.50;;